Time;durP1;ratioP1;P1;durP2;ratioP2;P2;SDS_P1;SDS_P2;PMS_P1;PMS_P2;Temp;Humidity;BMP_temperature;BMP_pressure;BME280_temperature;BME280_humidity;BME280_pressure;Samples;Min_cycle;Max_cycle;Signal;HPM_P1;HPM_P2
2023/06/01 00:02:16;;;;;;;;;;;;;;;16.53;57.47;100907.03;4982325;28;2066;-74
2023/06/01 00:04:43;;;;;;;;;;;;;;;16.53;57.38;100903.47;4979261;28;2123;-74
2023/06/01 00:07:10;;;;;;;;;;;;;;;16.51;57.51;100914.63;4981593;28;1380;-75
2023/06/01 00:09:36;;;;;;;;;;;;;;;16.51;57.36;100906.44;4984764;28;995;-73
2023/06/01 00:12:03;;;;;;;;;;;;;;;16.50;57.41;100906.69;4972912;28;2091;-74
2023/06/01 00:14:29;;;;;;;;;;;;;;;16.49;57.47;100905.06;4984678;28;2050;-73
2023/06/01 00:16:56;;;;;;;;;;;;;;;16.49;57.42;100907.78;4964839;28;1911;-73
2023/06/01 00:19:24;;;;;;;;;;;;;;;16.47;57.31;100905.31;4980889;28;2057;-74
2023/06/01 00:21:53;;;;;;;;;;;;;;;16.47;57.46;100909.91;4979992;28;2043;-74
2023/06/01 00:24:20;;;;;;;;;;;;;;;16.46;57.65;100919.16;4982668;28;1712;-74
2023/06/01 00:26:46;;;;;;;;;;;;;;;16.44;57.68;100900.38;4973926;28;1071;-74
2023/06/01 00:29:13;;;;;;;;;;;;;;;16.44;57.85;100907.69;4977877;28;5065;-74
2023/06/01 00:31:39;;;;;;;;;;;;;;;16.43;57.83;100901.44;4977497;28;1645;-74
2023/06/01 00:34:07;;;;;;;;;;;;;;;16.42;57.74;100902.53;4967721;28;2031;-74
2023/06/01 00:36:33;;;;;;;;;;;;;;;16.42;57.82;100904.44;4980217;28;1535;-74
2023/06/01 00:39:02;;;;;;;;;;;;;;;16.41;57.87;100908.19;4980091;28;2092;-73
2023/06/01 00:41:29;;;;;;;;;;;;;;;16.40;57.97;100906.56;4978626;28;2056;-73
2023/06/01 00:43:55;;;;;;;;;;;;;;;16.38;58.10;100905.97;4971608;28;2422;-73
2023/06/01 00:46:22;;;;;;;;;;;;;;;16.38;58.11;100919.56;4977828;28;3550;-75
2023/06/01 00:48:48;;;;;;;;;;;;;;;16.35;58.05;100916.31;4982990;28;3721;-73
2023/06/01 00:51:15;;;;;;;;;;;;;;;16.34;58.01;100909.19;4979100;28;2781;-74
2023/06/01 00:53:41;;;;;;;;;;;;;;;16.34;58.00;100911.09;4983875;28;1067;-74
2023/06/01 00:56:08;;;;;;;;;;;;;;;16.34;57.99;100924.69;4983433;28;1094;-74
2023/06/01 00:58:34;;;;;;;;;;;;;;;16.32;57.99;100924.94;4972089;28;1964;-74
2023/06/01 01:01:02;;;;;;;;;;;;;;;16.31;58.09;100914.31;4982645;28;2002;-74
2023/06/01 01:03:31;;;;;;;;;;;;;;;16.30;58.07;100920.84;4982639;28;2639;-74
2023/06/01 01:05:58;;;;;;;;;;;;;;;16.29;57.89;100930.03;4979434;28;2699;-74
2023/06/01 01:08:24;;;;;;;;;;;;;;;16.28;58.01;100915.63;4980112;28;2032;-74
2023/06/01 01:10:51;;;;;;;;;;;;;;;16.27;58.11;100919.44;4983519;28;2029;-74
2023/06/01 01:13:18;;;;;;;;;;;;;;;16.25;58.08;100921.56;4965392;28;1442;-73
2023/06/01 01:15:44;;;;;;;;;;;;;;;16.25;58.11;100912.59;4962707;28;1799;-73
2023/06/01 01:18:13;;;;;;;;;;;;;;;16.23;58.19;100912.00;4981384;28;2361;-74
2023/06/01 01:20:40;;;;;;;;;;;;;;;16.23;58.04;100909.28;4982646;28;1380;-73
2023/06/01 01:23:06;;;;;;;;;;;;;;;16.22;57.93;100911.19;4966661;28;1101;-74
2023/06/01 01:25:33;;;;;;;;;;;;;;;16.21;58.15;100915.00;4978060;28;2000;-74
2023/06/01 01:27:59;;;;;;;;;;;;;;;16.20;58.05;100912.50;4980611;28;1959;-74
2023/06/01 01:30:26;;;;;;;;;;;;;;;16.19;58.12;100917.13;4961527;28;1709;-74
2023/06/01 01:32:52;;;;;;;;;;;;;;;16.18;58.13;100912.78;4982696;28;2131;-74
2023/06/01 01:35:19;;;;;;;;;;;;;;;16.17;58.05;100921.16;4977633;28;4989;-74
2023/06/01 01:37:45;;;;;;;;;;;;;;;16.17;58.01;100923.88;4981767;28;2024;-75
2023/06/01 01:40:12;;;;;;;;;;;;;;;16.15;58.07;100920.56;4963750;28;1973;-73
2023/06/01 01:42:38;;;;;;;;;;;;;;;16.12;57.98;100919.19;4982704;28;1720;-75
2023/06/01 01:45:05;;;;;;;;;;;;;;;16.12;57.86;100922.72;4961157;28;1809;-74
2023/06/01 01:47:31;;;;;;;;;;;;;;;16.11;58.07;100928.41;4977517;28;2107;-73
2023/06/01 01:49:58;;;;;;;;;;;;;;;16.10;58.00;100926.75;4980027;28;2028;-72
2023/06/01 01:52:24;;;;;;;;;;;;;;;16.09;57.96;100920.50;4976978;28;2757;-74
2023/06/01 01:54:51;;;;;;;;;;;;;;;16.07;58.08;100917.22;4964085;28;2999;-72
2023/06/01 01:57:18;;;;;;;;;;;;;;;16.07;57.96;100919.09;4982441;28;2844;-74
2023/06/01 01:59:44;;;;;;;;;;;;;;;16.06;57.87;100921.00;4971203;28;2102;-73
2023/06/01 02:02:11;;;;;;;;;;;;;;;16.05;57.91;100932.94;4979126;28;2145;-73
2023/06/01 02:04:37;;;;;;;;;;;;;;;16.04;57.90;100925.03;4965858;28;2210;-72
2023/06/01 02:07:04;;;;;;;;;;;;;;;16.03;57.94;100934.25;4981070;28;1424;-74
2023/06/01 02:09:31;;;;;;;;;;;;;;;16.01;57.94;100930.97;4971656;28;2782;-73
2023/06/01 02:11:57;;;;;;;;;;;;;;;16.01;57.93;100933.69;4983012;28;1019;-73
2023/06/01 02:14:24;;;;;;;;;;;;;;;16.01;57.86;100941.84;4963693;28;2285;-73
2023/06/01 02:16:50;;;;;;;;;;;;;;;15.98;57.78;100928.75;4975570;28;2271;-74
2023/06/01 02:19:17;;;;;;;;;;;;;;;15.97;58.14;100932.50;4967211;28;2007;-75
2023/06/01 02:21:43;;;;;;;;;;;;;;;15.96;57.91;100928.97;4982211;28;1027;-75
2023/06/01 02:24:10;;;;;;;;;;;;;;;15.94;57.89;100931.09;4961132;28;2017;-75
2023/06/01 02:26:37;;;;;;;;;;;;;;;15.93;57.88;100934.91;4960139;28;1749;-73
2023/06/01 02:29:04;;;;;;;;;;;;;;;15.93;57.89;100932.19;4963337;28;1557;-73
2023/06/01 02:31:31;;;;;;;;;;;;;;;15.91;57.79;100934.31;4975815;28;1447;-74
2023/06/01 02:33:57;;;;;;;;;;;;;;;15.91;57.75;100934.31;4980283;28;1996;-73
2023/06/01 02:36:25;;;;;;;;;;;;;;;15.89;57.72;100942.72;4960924;28;1987;-75
2023/06/01 02:38:51;;;;;;;;;;;;;;;15.87;57.75;100946.75;4977997;28;2280;-73
2023/06/01 02:41:18;;;;;;;;;;;;;;;15.87;57.70;100949.47;4980038;28;2011;-73
2023/06/01 02:43:44;;;;;;;;;;;;;;;15.45;57.60;100895.47;4976926;28;2122;-73
2023/06/01 02:46:11;;;;;;;;;;;;;;;15.85;57.64;100940.72;4976403;28;1570;-73
2023/06/01 02:48:37;;;;;;;;;;;;;;;15.83;57.75;100946.41;4979138;28;1548;-75
2023/06/01 02:51:05;;;;;;;;;;;;;;;15.82;57.78;100946.66;4963594;28;1550;-73
2023/06/01 02:53:31;;;;;;;;;;;;;;;15.81;57.77;100962.13;4980877;28;2023;-74
2023/06/01 02:55:58;;;;;;;;;;;;;;;15.80;57.68;100956.97;4980089;28;1515;-73
2023/06/01 02:58:25;;;;;;;;;;;;;;;15.80;57.68;100959.69;4959538;28;5042;-73
2023/06/01 03:00:51;;;;;;;;;;;;;;;15.77;57.67;100960.97;4974824;28;2165;-73
2023/06/01 03:03:18;;;;;;;;;;;;;;;15.77;57.62;100958.28;4979421;28;2077;-73
2023/06/01 03:05:47;;;;;;;;;;;;;;;15.76;57.65;100956.59;4977194;28;2156;-74
2023/06/01 03:08:16;;;;;;;;;;;;;;;15.75;57.49;100970.44;4979428;28;2100;-73
2023/06/01 03:10:43;;;;;;;;;;;;;;;15.72;57.53;100966.31;4977011;28;4888;-73
2023/06/01 03:13:09;;;;;;;;;;;;;;;15.72;57.62;100971.75;4979933;28;2121;-74
2023/06/01 03:15:37;;;;;;;;;;;;;;;15.71;57.44;100972.00;4962745;28;1400;-74
2023/06/01 03:18:03;;;;;;;;;;;;;;;15.70;57.53;100973.06;4958702;28;2093;-74
2023/06/01 03:20:30;;;;;;;;;;;;;;;15.68;57.60;100976.03;4979920;28;1421;-73
2023/06/01 03:22:56;;;;;;;;;;;;;;;15.67;57.60;100974.31;4980426;28;2108;-73
2023/06/01 03:25:24;;;;;;;;;;;;;;;15.67;57.50;100982.47;4980100;28;1853;-74
2023/06/01 03:27:51;;;;;;;;;;;;;;;15.65;57.51;100971.06;4976173;28;3436;-74
2023/06/01 03:30:17;;;;;;;;;;;;;;;15.63;57.63;100979.44;4973922;28;3260;-73
2023/06/01 03:32:44;;;;;;;;;;;;;;;15.62;57.47;100982.41;4963541;28;2024;-73
2023/06/01 03:35:11;;;;;;;;;;;;;;;15.61;57.57;100978.00;4978275;28;2612;-75
2023/06/01 03:37:37;;;;;;;;;;;;;;;15.61;57.54;100986.16;4965240;28;2086;-74
2023/06/01 03:40:10;;;;;;;;;;;;;;;15.59;57.52;100981.00;4978506;28;2103;-73
2023/06/01 03:42:36;;;;;;;;;;;;;;;15.58;57.39;100984.75;4967724;28;2221;-74
2023/06/01 03:45:04;;;;;;;;;;;;;;;15.57;57.50;100985.00;4966253;28;1515;-74
2023/06/01 03:47:31;;;;;;;;;;;;;;;15.56;57.41;100986.06;4978320;28;2611;-74
2023/06/01 03:49:58;;;;;;;;;;;;;;;15.56;57.32;100986.06;4965225;28;2155;-73
2023/06/01 03:52:25;;;;;;;;;;;;;;;15.54;57.47;100985.50;4965587;28;2076;-74
2023/06/01 03:54:51;;;;;;;;;;;;;;;15.53;57.22;100990.09;4981970;28;1495;-74
2023/06/01 03:57:18;;;;;;;;;;;;;;;15.52;57.32;100988.44;4982522;28;2225;-75
2023/06/01 03:59:44;;;;;;;;;;;;;;;15.51;57.47;100999.56;4966308;28;1981;-73
2023/06/01 04:02:11;;;;;;;;;;;;;;;15.49;57.08;100991.63;4975160;28;2133;-75
2023/06/01 04:04:40;;;;;;;;;;;;;;;15.48;57.30;100987.28;4979779;28;2047;-75
2023/06/01 04:07:06;;;;;;;;;;;;;;;15.50;57.29;100997.88;4980010;28;2042;-74
2023/06/01 04:09:33;;;;;;;;;;;;;;;15.48;57.02;100998.13;4980660;28;2018;-74
2023/06/01 04:12:01;;;;;;;;;;;;;;;15.46;57.08;100997.53;4978269;28;2252;-74
2023/06/01 04:14:48;;;;;;;;;;;;;;;15.44;57.06;100995.09;4968155;28;2209;-74
2023/06/01 04:17:39;;;;;;;;;;;;;;;15.45;56.92;100998.63;4970644;28;2217;-75
2023/06/01 04:20:32;;;;;;;;;;;;;;;15.42;56.85;100993.69;4970025;28;2205;-74
2023/06/01 04:23:23;;;;;;;;;;;;;;;15.42;57.03;100999.94;4972359;28;3919;-74
2023/06/01 04:26:14;;;;;;;;;;;;;;;15.41;57.10;101006.44;4971289;28;2102;-73
2023/06/01 04:29:08;;;;;;;;;;;;;;;15.41;57.12;101008.28;4975697;28;1523;-74
2023/06/01 04:31:59;;;;;;;;;;;;;;;15.38;57.02;101003.34;4970299;28;2113;-74
2023/06/01 04:34:51;;;;;;;;;;;;;;;15.41;56.96;101008.28;4970047;28;1983;-74
2023/06/01 04:37:44;;;;;;;;;;;;;;;15.37;57.11;101001.72;4973966;28;2091;-74
2023/06/01 04:40:36;;;;;;;;;;;;;;;15.36;56.94;101003.59;4974031;28;2073;-73
2023/06/01 04:43:27;;;;;;;;;;;;;;;15.35;57.05;101011.97;4971366;28;2117;-73
2023/06/01 04:46:20;;;;;;;;;;;;;;;15.35;56.95;101014.69;4969361;28;3350;-74
2023/06/01 04:49:15;;;;;;;;;;;;;;;15.36;56.76;101013.63;4971576;28;2089;-75
2023/06/01 04:52:06;;;;;;;;;;;;;;;15.45;56.55;101009.47;4963256;28;2328;-74
2023/06/01 04:54:59;;;;;;;;;;;;;;;15.34;56.79;101010.34;4972882;28;2217;-74
2023/06/01 04:57:50;;;;;;;;;;;;;;;15.31;56.99;101010.81;4976739;28;2572;-74
2023/06/01 05:00:43;;;;;;;;;;;;;;;15.32;56.69;101015.97;4972283;28;2024;-74
2023/06/01 05:03:34;;;;;;;;;;;;;;;15.30;56.86;101014.59;4971225;28;3265;-74
2023/06/01 05:06:27;;;;;;;;;;;;;;;15.29;56.70;101019.19;4972146;28;1509;-75
2023/06/01 05:09:19;;;;;;;;;;;;;;;15.27;56.87;101018.63;4967691;28;2136;-76
2023/06/01 05:12:10;;;;;;;;;;;;;;;15.28;56.72;101014.00;4962991;28;1519;-73
2023/06/01 05:15:02;;;;;;;;;;;;;;;15.36;56.40;101022.59;4974933;28;1379;-75
2023/06/01 05:17:54;;;;;;;;;;;;;;;15.32;56.52;101028.72;4972192;28;1906;-76
2023/06/01 05:20:46;;;;;;;;;;;;;;;15.33;56.41;101023.09;4974520;28;2051;-74
2023/06/01 05:23:39;;;;;;;;;;;;;;;15.28;56.34;101033.00;4973312;28;2024;-76
2023/06/01 05:26:31;;;;;;;;;;;;;;;15.24;56.59;101037.28;4973372;28;5444;-74
2023/06/01 05:28:57;;;;;;;;;;;;;;;15.37;56.29;101034.28;4980485;28;2084;-74
2023/06/01 05:31:24;;;;;;;;;;;;;;;15.25;56.39;101026.16;4966178;28;4314;-74
2023/06/01 05:34:11;;;;;;;;;;;;;;;15.32;56.27;101034.97;4981070;28;1354;-74
2023/06/01 05:37:07;;;;;;;;;;;;;;;15.30;56.34;101039.03;5035113;23;3672;-95
2023/06/01 06:43:22;;;;;;;;;;;;;;;15.07;56.22;101048.00;4954258;23;1994;-74
2023/06/01 06:45:49;;;;;;;;;;;;;;;15.07;56.28;101045.31;4998377;28;1426;-75
2023/06/01 06:48:16;;;;;;;;;;;;;;;15.04;56.09;101043.88;4993527;28;2029;-75
2023/06/01 06:50:44;;;;;;;;;;;;;;;15.06;56.14;101049.06;4994676;28;1396;-74
2023/06/01 06:53:11;;;;;;;;;;;;;;;15.05;55.98;101050.94;4992225;28;1612;-73
2023/06/01 06:55:37;;;;;;;;;;;;;;;15.04;56.10;101046.59;4997531;28;1479;-74
2023/06/01 06:58:04;;;;;;;;;;;;;;;15.05;56.01;101058.28;4973436;28;2053;-73
2023/06/01 07:00:32;;;;;;;;;;;;;;;15.03;55.92;101050.38;4994326;28;3649;-74
2023/06/01 07:03:00;;;;;;;;;;;;;;;15.04;55.77;101048.50;4982310;28;1411;-73
2023/06/01 07:05:26;;;;;;;;;;;;;;;15.03;55.91;101061.25;4974867;28;1952;-74
2023/06/01 07:07:53;;;;;;;;;;;;;;;15.03;56.02;101065.81;4992587;28;1392;-74
2023/06/01 07:10:19;;;;;;;;;;;;;;;15.03;56.06;101063.94;4996311;28;1817;-74
2023/06/01 07:12:46;;;;;;;;;;;;;;;15.02;55.98;101059.56;4982612;28;1548;-74
2023/06/01 07:15:12;;;;;;;;;;;;;;;15.03;56.06;101068.53;4982982;28;1915;-73
2023/06/01 07:17:39;;;;;;;;;;;;;;;15.03;56.18;101069.38;5001416;28;1077;-74
2023/06/01 07:20:06;;;;;;;;;;;;;;;15.01;55.83;101068.78;5002300;28;1977;-74
2023/06/01 07:22:33;;;;;;;;;;;;;;;15.01;55.32;101063.34;4994814;28;1982;-74
2023/06/01 07:25:00;;;;;;;;;;;;;;;15.01;55.99;101063.34;5000073;28;1763;-75
2023/06/01 07:27:26;;;;;;;;;;;;;;;15.02;56.01;101067.69;4999246;28;1991;-74
2023/06/01 07:29:55;;;;;;;;;;;;;;;15.01;55.80;101067.97;5000840;28;1446;-74
2023/06/01 07:32:22;;;;;;;;;;;;;;;15.02;55.85;101075.03;5002600;28;1032;-75
2023/06/01 07:34:48;;;;;;;;;;;;;;;15.01;55.80;101076.09;4997178;28;2018;-75
2023/06/01 07:37:15;;;;;;;;;;;;;;;15.00;55.65;101075.28;4982091;28;2394;-76
2023/06/01 07:39:41;;;;;;;;;;;;;;;15.01;55.75;101074.19;4981846;28;1918;-75
2023/06/01 07:42:08;;;;;;;;;;;;;;;14.99;55.62;101079.84;4982701;28;1085;-75
2023/06/01 07:44:34;;;;;;;;;;;;;;;15.00;55.75;101072.56;4969305;28;2131;-74
2023/06/01 07:47:01;;;;;;;;;;;;;;;15.00;55.85;101075.28;4976414;28;3431;-74
2023/06/01 07:49:28;;;;;;;;;;;;;;;15.00;56.02;101078.00;4963758;28;1090;-75
2023/06/01 07:51:56;;;;;;;;;;;;;;;15.00;55.81;101080.69;4962278;28;2798;-74
2023/06/01 07:54:23;;;;;;;;;;;;;;;14.98;55.59;101089.06;4979382;28;1983;-75
2023/06/01 07:56:49;;;;;;;;;;;;;;;14.99;55.48;101087.16;4961580;28;5468;-75
2023/06/01 07:59:16;;;;;;;;;;;;;;;14.99;55.13;101085.28;4962922;28;1982;-75
2023/06/01 08:01:42;;;;;;;;;;;;;;;14.99;55.32;101079.03;4980959;28;1432;-74
2023/06/01 08:04:10;;;;;;;;;;;;;;;14.99;55.68;101081.75;4978376;28;2019;-75
2023/06/01 08:06:38;;;;;;;;;;;;;;;14.99;55.84;101089.88;4979918;28;1495;-74
2023/06/01 08:09:05;;;;;;;;;;;;;;;14.99;55.50;101082.56;4981076;28;2034;-74
2023/06/01 08:11:32;;;;;;;;;;;;;;;14.99;55.67;101085.28;4981244;28;995;-74
2023/06/01 08:13:59;;;;;;;;;;;;;;;14.98;55.67;101080.09;4980000;28;1996;-75
2023/06/01 08:16:26;;;;;;;;;;;;;;;15.00;55.79;101083.41;4981732;28;1063;-73
2023/06/01 08:18:53;;;;;;;;;;;;;;;15.00;55.71;101086.13;4980240;28;2069;-75
2023/06/01 08:21:20;;;;;;;;;;;;;;;15.01;55.89;101084.22;4978358;28;2011;-74
2023/06/01 08:23:47;;;;;;;;;;;;;;;15.01;55.90;101076.09;4984091;28;1064;-74
2023/06/01 08:26:13;;;;;;;;;;;;;;;15.01;55.67;101081.53;4984969;28;1014;-74
2023/06/01 08:28:40;;;;;;;;;;;;;;;14.99;55.78;101074.41;4964982;28;2050;-75
2023/06/01 08:31:07;;;;;;;;;;;;;;;14.99;55.53;101082.56;4981909;28;1363;-75
2023/06/01 08:33:34;;;;;;;;;;;;;;;15.00;55.47;101080.69;4985245;28;952;-75
2023/06/01 08:36:00;;;;;;;;;;;;;;;15.01;55.70;101084.22;4981236;28;2202;-74
2023/06/01 08:38:32;;;;;;;;;;;;;;;15.00;55.74;101078.00;4964601;28;2013;-73
2023/06/01 08:40:58;;;;;;;;;;;;;;;15.01;55.72;101071.50;4984212;28;1932;-75
2023/06/01 08:43:25;;;;;;;;;;;;;;;15.01;55.84;101067.97;4968136;28;1234;-75
2023/06/01 08:45:51;;;;;;;;;;;;;;;15.00;55.70;101067.13;4983502;28;1462;-74
2023/06/01 08:48:18;;;;;;;;;;;;;;;15.01;55.74;101068.78;4966520;28;1976;-74
2023/06/01 08:50:45;;;;;;;;;;;;;;;15.01;55.62;101071.50;4967124;28;1607;-75
2023/06/01 08:53:12;;;;;;;;;;;;;;;15.01;55.87;101068.78;4981264;28;1439;-75
2023/06/01 08:55:38;;;;;;;;;;;;;;;15.00;55.60;101069.84;4967441;28;1173;-74
2023/06/01 08:58:05;;;;;;;;;;;;;;;15.01;55.53;101067.97;4966783;28;2000;-74
2023/06/01 09:00:32;;;;;;;;;;;;;;;15.02;55.61;101072.31;4982280;28;2003;-75
2023/06/01 09:02:59;;;;;;;;;;;;;;;15.02;55.40;101075.03;4981082;28;2069;-75
2023/06/01 09:05:26;;;;;;;;;;;;;;;15.02;55.71;101073.13;4982255;28;1934;-74
2023/06/01 09:07:54;;;;;;;;;;;;;;;15.01;55.67;101076.91;4980164;28;3795;-75
2023/06/01 09:10:20;;;;;;;;;;;;;;;15.02;55.52;101072.31;4966559;28;4910;-75
2023/06/01 09:12:47;;;;;;;;;;;;;;;15.02;55.77;101083.16;4966996;28;1078;-75
2023/06/01 09:15:16;;;;;;;;;;;;;;;15.02;55.62;101075.03;4984220;28;1107;-75
2023/06/01 09:17:42;;;;;;;;;;;;;;;15.01;55.34;101081.53;4981262;28;1997;-74
2023/06/01 09:20:09;;;;;;;;;;;;;;;15.01;55.35;101082.34;4966833;28;1981;-74
2023/06/01 09:22:35;;;;;;;;;;;;;;;15.02;55.51;101078.56;4964995;28;1595;-75
2023/06/01 09:25:02;;;;;;;;;;;;;;;15.03;55.76;101080.22;4983895;28;1131;-74
2023/06/01 09:27:29;;;;;;;;;;;;;;;15.03;55.71;101071.22;4962558;28;2029;-75
2023/06/01 09:29:56;;;;;;;;;;;;;;;15.04;55.66;101084.56;4983261;28;1399;-75
2023/06/01 09:32:22;;;;;;;;;;;;;;;15.04;55.38;101083.75;4982031;28;1459;-75
2023/06/01 09:34:49;;;;;;;;;;;;;;;15.03;55.53;101077.50;4964435;28;2204;-73
2023/06/01 09:37:16;;;;;;;;;;;;;;;15.02;55.48;101085.88;4980818;28;3927;-74
2023/06/01 09:39:43;;;;;;;;;;;;;;;15.03;55.48;101093.78;4982666;28;5089;-74
2023/06/01 09:42:10;;;;;;;;;;;;;;;15.03;55.20;101085.66;4981667;28;1986;-75
2023/06/01 09:44:36;;;;;;;;;;;;;;;15.04;54.64;101083.75;4982906;28;1368;-74
2023/06/01 09:47:03;;;;;;;;;;;;;;;15.05;55.30;101088.09;4983588;28;2005;-74
2023/06/01 09:49:29;;;;;;;;;;;;;;;15.04;55.19;101079.16;4972191;28;1940;-74
2023/06/01 09:51:56;;;;;;;;;;;;;;;15.04;55.37;101079.16;4967350;28;2008;-74
2023/06/01 09:54:22;;;;;;;;;;;;;;;15.05;55.58;101080.78;4982343;28;1476;-74
2023/06/01 09:56:49;;;;;;;;;;;;;;;15.05;55.63;101079.97;4964627;28;2060;-75
2023/06/01 09:59:15;;;;;;;;;;;;;;;15.05;56.00;101080.78;4973072;28;1981;-74
2023/06/01 10:01:42;;;;;;;;;;;;;;;15.06;55.88;101068.06;4979957;28;1873;-74
2023/06/01 10:04:08;;;;;;;;;;;;;;;15.06;55.58;101070.75;4972861;28;1184;-75
2023/06/01 10:06:35;;;;;;;;;;;;;;;15.07;55.75;101077.84;4970143;28;1966;-75
2023/06/01 10:09:01;;;;;;;;;;;;;;;15.06;55.89;101077.03;4983174;28;1939;-75
2023/06/01 10:11:28;;;;;;;;;;;;;;;15.06;55.80;101087.88;4979260;28;2075;-74
2023/06/01 10:13:54;;;;;;;;;;;;;;;15.07;55.47;101086.81;4981935;28;2047;-74
2023/06/01 10:16:21;;;;;;;;;;;;;;;15.07;55.32;101094.94;4981840;28;1885;-74
2023/06/01 10:18:48;;;;;;;;;;;;;;;15.08;55.62;101090.34;4971734;28;1806;-73
2023/06/01 10:21:14;;;;;;;;;;;;;;;15.07;55.58;101094.94;4963364;28;1907;-73
2023/06/01 10:23:41;;;;;;;;;;;;;;;15.08;55.80;101095.78;4979781;28;2051;-74
2023/06/01 10:26:07;;;;;;;;;;;;;;;15.09;55.68;101100.13;4982706;28;2014;-76
2023/06/01 10:28:34;;;;;;;;;;;;;;;15.08;55.52;101095.78;4965221;28;1367;-75
2023/06/01 10:31:01;;;;;;;;;;;;;;;15.08;55.68;101090.34;4964260;28;1499;-75
2023/06/01 10:33:27;;;;;;;;;;;;;;;15.08;55.66;101099.31;4982854;28;1139;-75
2023/06/01 10:35:54;;;;;;;;;;;;;;;15.09;55.87;101097.41;4980840;28;1920;-75
2023/06/01 10:38:20;;;;;;;;;;;;;;;15.10;55.65;101099.91;4963903;28;2708;-75
2023/06/01 10:40:47;;;;;;;;;;;;;;;15.10;55.80;101102.63;4982429;28;1915;-76
2023/06/01 10:43:14;;;;;;;;;;;;;;;15.11;55.71;101103.44;4979275;28;2000;-75
2023/06/01 10:45:40;;;;;;;;;;;;;;;15.11;55.31;101108.88;4978357;28;3602;-75
2023/06/01 10:48:07;;;;;;;;;;;;;;;15.11;55.46;101115.09;4963491;28;3867;-75
2023/06/01 10:50:33;;;;;;;;;;;;;;;15.12;55.64;101121.38;4982722;28;1080;-75
2023/06/01 10:53:00;;;;;;;;;;;;;;;15.12;55.78;101108.66;4963262;28;1979;-76
2023/06/01 10:55:26;;;;;;;;;;;;;;;15.12;55.85;101099.69;4980180;28;3968;-75
2023/06/01 10:57:53;;;;;;;;;;;;;;;15.12;55.99;101099.69;4961295;28;4719;-74
2023/06/01 11:00:20;;;;;;;;;;;;;;;15.12;55.71;101105.09;4982320;28;1919;-76
2023/06/01 11:02:48;;;;;;;;;;;;;;;15.12;55.28;101113.25;4970992;28;1564;-75
2023/06/01 11:05:15;;;;;;;;;;;;;;;15.12;55.08;101102.41;4965789;28;2172;-75
2023/06/01 11:07:41;;;;;;;;;;;;;;;15.13;55.64;101107.56;4981365;28;1911;-74
2023/06/01 11:10:08;;;;;;;;;;;;;;;15.14;55.82;101111.09;4971734;28;1086;-73
2023/06/01 11:12:34;;;;;;;;;;;;;;;15.14;55.90;101105.69;4969162;28;1990;-75
2023/06/01 11:15:03;;;;;;;;;;;;;;;15.14;55.85;101100.25;4981380;28;1963;-75
2023/06/01 11:17:30;;;;;;;;;;;;;;;15.14;55.09;101097.53;4976506;28;2948;-75
2023/06/01 11:19:57;;;;;;;;;;;;;;;15.14;55.47;101094.81;4981845;28;1911;-75
2023/06/01 11:22:24;;;;;;;;;;;;;;;15.15;55.59;101099.22;4962592;28;2072;-74
2023/06/01 11:24:51;;;;;;;;;;;;;;;15.15;55.69;101100.03;4969992;28;1948;-74
2023/06/01 11:27:18;;;;;;;;;;;;;;;15.16;55.64;101096.25;4980697;28;1394;-75
2023/06/01 11:29:45;;;;;;;;;;;;;;;15.17;55.85;101105.19;4981271;28;1900;-74
2023/06/01 11:32:11;;;;;;;;;;;;;;;15.16;55.66;101096.25;4981915;28;1871;-74
2023/06/01 11:34:38;;;;;;;;;;;;;;;15.16;55.36;101093.53;4962433;28;1873;-75
2023/06/01 11:37:05;;;;;;;;;;;;;;;15.18;55.17;101096.03;4977650;28;2363;-75
2023/06/01 11:39:32;;;;;;;;;;;;;;;15.19;55.25;101105.81;4981521;28;1984;-75
2023/06/01 11:41:58;;;;;;;;;;;;;;;15.19;55.79;101101.19;4980882;28;2174;-75
2023/06/01 11:44:25;;;;;;;;;;;;;;;15.19;56.01;101097.66;4980795;28;1396;-74
2023/06/01 11:46:52;;;;;;;;;;;;;;;15.20;56.03;101091.16;4980640;28;1542;-74
2023/06/01 11:49:19;;;;;;;;;;;;;;;15.21;55.99;101096.38;4968534;28;2023;-75
2023/06/01 11:51:45;;;;;;;;;;;;;;;15.21;56.03;101107.22;4980479;28;1932;-75
2023/06/01 11:54:12;;;;;;;;;;;;;;;15.21;55.91;101096.38;4978868;28;1965;-74
2023/06/01 11:56:39;;;;;;;;;;;;;;;15.21;56.10;101100.97;4980847;28;2020;-75
2023/06/01 11:59:08;;;;;;;;;;;;;;;15.21;56.20;101101.78;4985759;28;1150;-75
2023/06/01 12:01:35;;;;;;;;;;;;;;;15.21;55.56;101090.94;4984808;28;1915;-75
2023/06/01 12:04:02;;;;;;;;;;;;;;;15.24;55.27;101100.50;4964469;28;1971;-75
2023/06/01 12:06:28;;;;;;;;;;;;;;;15.24;55.53;101096.97;4980882;28;4837;-75
2023/06/01 12:08:55;;;;;;;;;;;;;;;15.25;55.79;101096.72;4982707;28;2023;-75
2023/06/01 12:11:22;;;;;;;;;;;;;;;15.24;56.11;101092.34;4975549;28;1322;-74
2023/06/01 12:13:49;;;;;;;;;;;;;;;15.26;56.20;101100.25;4984491;28;1508;-74
2023/06/01 12:16:16;;;;;;;;;;;;;;;15.25;56.26;101094.00;4983275;28;2051;-75
2023/06/01 12:18:42;;;;;;;;;;;;;;;15.26;56.19;101097.53;4983343;28;1971;-74
2023/06/01 12:21:09;;;;;;;;;;;;;;;15.26;55.98;101084.78;4984445;28;1919;-74
2023/06/01 12:23:36;;;;;;;;;;;;;;;15.27;55.89;101086.44;4975209;28;1012;-74
2023/06/01 12:26:03;;;;;;;;;;;;;;;15.28;55.73;101098.13;4984312;28;2007;-74
2023/06/01 12:28:35;;;;;;;;;;;;;;;15.29;54.30;101088.91;4984244;28;1935;-75
2023/06/01 12:31:02;;;;;;;;;;;;;;;15.29;54.88;101091.63;4983196;28;1428;-75
2023/06/01 12:33:28;;;;;;;;;;;;;;;15.30;55.10;101094.13;4984359;28;1012;-74
2023/06/01 12:35:55;;;;;;;;;;;;;;;15.32;55.41;101096.56;4983425;28;1992;-74
2023/06/01 12:38:22;;;;;;;;;;;;;;;15.32;55.84;101102.81;4984534;28;1031;-75
2023/06/01 12:40:48;;;;;;;;;;;;;;;15.31;55.90;101092.22;4971741;28;1985;-74
2023/06/01 12:43:15;;;;;;;;;;;;;;;15.32;55.56;101097.41;4983099;28;1958;-75
2023/06/01 12:45:41;;;;;;;;;;;;;;;15.34;55.52;101086.31;4983239;28;2073;-75
2023/06/01 12:48:08;;;;;;;;;;;;;;;15.35;55.53;101087.97;4962877;28;3514;-76
2023/06/01 12:50:34;;;;;;;;;;;;;;;15.34;56.07;101100.72;4966256;28;2038;-75
2023/06/01 12:53:02;;;;;;;;;;;;;;;15.36;56.29;101087.72;4985061;28;1083;-74
2023/06/01 12:55:28;;;;;;;;;;;;;;;15.38;56.20;101087.47;4966301;28;2000;-74
2023/06/01 12:57:55;;;;;;;;;;;;;;;15.38;56.28;101084.75;4963512;28;2096;-75
2023/06/01 13:00:21;;;;;;;;;;;;;;;15.39;56.38;101081.81;4981646;28;2173;-74
2023/06/01 13:02:50;;;;;;;;;;;;;;;15.38;56.32;101080.19;4984985;28;943;-75
2023/06/01 13:05:16;;;;;;;;;;;;;;;15.40;56.22;101082.66;4982446;28;2032;-74
2023/06/01 13:07:43;;;;;;;;;;;;;;;15.40;56.13;101086.19;4983525;28;1125;-75
2023/06/01 13:10:10;;;;;;;;;;;;;;;15.41;55.17;101085.13;4964134;28;2171;-75
2023/06/01 13:12:36;;;;;;;;;;;;;;;15.43;55.71;101069.41;4983612;28;1970;-75
2023/06/01 13:15:04;;;;;;;;;;;;;;;15.45;56.08;101083.59;4980572;28;2001;-75
2023/06/01 13:17:30;;;;;;;;;;;;;;;15.43;56.07;101074.03;4984732;28;1107;-76
2023/06/01 13:19:56;;;;;;;;;;;;;;;15.44;56.04;101071.09;4983265;28;1980;-74
2023/06/01 13:22:23;;;;;;;;;;;;;;;15.47;55.95;101068.94;4983740;28;2015;-75
2023/06/01 13:24:50;;;;;;;;;;;;;;;15.49;56.13;101077.69;4982400;28;1443;-75
2023/06/01 13:27:16;;;;;;;;;;;;;;;15.48;56.17;101071.44;4981240;28;4679;-74
2023/06/01 13:29:43;;;;;;;;;;;;;;;15.48;56.17;101076.03;4981785;28;1694;-74
2023/06/01 13:32:09;;;;;;;;;;;;;;;15.49;56.12;101073.06;4962403;28;1982;-75
2023/06/01 13:34:36;;;;;;;;;;;;;;;15.50;55.74;101079.31;4965200;28;2235;-74
2023/06/01 13:37:02;;;;;;;;;;;;;;;15.51;55.71;101079.09;4981396;28;1987;-75
2023/06/01 13:39:29;;;;;;;;;;;;;;;15.53;55.76;101081.53;4983871;28;1075;-75
2023/06/01 13:41:56;;;;;;;;;;;;;;;15.53;55.92;101073.41;4964637;28;1918;-74
2023/06/01 13:44:23;;;;;;;;;;;;;;;15.52;56.01;101078.00;4981354;28;1979;-74
2023/06/01 13:46:50;;;;;;;;;;;;;;;15.53;55.26;101070.69;4982759;28;1070;-75
2023/06/01 13:49:16;;;;;;;;;;;;;;;15.56;54.31;101078.34;4982145;28;1335;-74
2023/06/01 13:51:43;;;;;;;;;;;;;;;15.58;54.36;101079.75;4964137;28;2068;-74
2023/06/01 13:54:12;;;;;;;;;;;;;;;15.58;55.10;101071.63;4982123;28;1925;-75
2023/06/01 13:56:39;;;;;;;;;;;;;;;15.59;55.56;101069.75;4982952;28;1538;-75
2023/06/01 13:59:05;;;;;;;;;;;;;;;15.59;55.24;101061.63;4973558;28;1384;-75
2023/06/01 14:01:32;;;;;;;;;;;;;;;15.61;55.00;101065.72;4979577;28;1991;-74